createdAt,value
2023-05-05T00:00:43.397Z,13.1
2023-05-05T00:04:54.423Z,13
2023-05-05T00:06:58.316Z,12.9
2023-05-05T00:11:06.075Z,12.8
2023-05-05T00:13:10.066Z,12.8
2023-05-05T00:22:32.343Z,12.8
2023-05-05T00:24:36.233Z,12.8
2023-05-05T00:26:40.125Z,12.8
2023-05-05T00:28:43.988Z,12.8
2023-05-05T00:30:51.176Z,12.8
2023-05-05T00:32:55.124Z,12.8
2023-05-05T00:34:58.922Z,12.8
2023-05-05T00:37:02.828Z,12.8
2023-05-05T00:39:06.834Z,12.8
2023-05-05T00:41:10.587Z,12.8
2023-05-05T00:43:14.473Z,12.8
2023-05-05T00:45:21.639Z,12.8
2023-05-05T00:49:29.453Z,12.8
2023-05-05T00:51:33.298Z,12.7
2023-05-05T00:55:41.043Z,12.8
2023-05-05T01:03:59.940Z,12.8
2023-05-05T01:06:03.762Z,12.8
2023-05-05T01:08:07.631Z,12.8
2023-05-05T01:10:19.795Z,12.7
2023-05-05T01:12:15.406Z,12.7
2023-05-05T01:14:22.552Z,12.7
2023-05-05T01:16:26.434Z,12.7
2023-05-05T01:18:30.307Z,12.7
2023-05-05T01:19:33.931Z,12.7
2023-05-05T01:21:37.790Z,12.7
2023-05-05T01:23:41.686Z,12.7
2023-05-05T01:25:45.548Z,12.7
2023-05-05T01:27:52.695Z,12.7
2023-05-05T01:29:56.592Z,12.7
2023-05-05T01:32:00.599Z,12.6
2023-05-05T01:34:04.356Z,12.6
2023-05-05T01:36:08.252Z,12.6
2023-05-05T01:38:12.124Z,12.7
2023-05-05T01:40:16.027Z,12.7
2023-05-05T01:42:23.176Z,12.8
2023-05-05T01:44:27.078Z,12.7
2023-05-05T01:46:30.925Z,12.8
2023-05-05T01:48:34.817Z,12.7
2023-05-05T01:50:38.693Z,12.8
2023-05-05T01:52:42.619Z,12.8
2023-05-05T01:54:46.467Z,12.8
2023-05-05T01:56:53.623Z,12.9
2023-05-05T01:58:57.502Z,12.9
2023-05-05T02:01:01.399Z,12.9
2023-05-05T02:03:05.332Z,12.9
2023-05-05T02:05:09.074Z,13
2023-05-05T02:07:12.968Z,13.1
2023-05-05T02:16:35.336Z,13.8
2023-05-05T02:18:39.222Z,14
2023-05-05T02:20:43.144Z,14.3
2023-05-05T02:24:54.163Z,14.5
2023-05-05T02:26:58.035Z,14.6
2023-05-05T02:29:01.919Z,14.6
2023-05-05T02:31:05.808Z,14.7
2023-05-05T02:33:09.662Z,14.7
2023-05-05T02:35:13.548Z,14.7
2023-05-05T02:37:17.428Z,14.7
2023-05-05T02:39:24.584Z,14.8
2023-05-05T02:41:28.458Z,14.8
2023-05-05T02:43:32.343Z,14.9
2023-05-05T02:45:36.237Z,14.9
2023-05-05T02:47:40.287Z,14.9
2023-05-05T02:49:43.991Z,14.9
2023-05-05T02:51:47.872Z,14.9
2023-05-05T02:55:58.875Z,14.7
2023-05-05T02:58:02.768Z,14.7
2023-05-05T03:00:06.877Z,14.6
2023-05-05T03:02:10.483Z,14.5
2023-05-05T03:04:14.372Z,14.5
2023-05-05T03:06:18.251Z,14.4
2023-05-05T03:08:25.398Z,14.3
2023-05-05T03:10:29.279Z,14.2
2023-05-05T03:12:33.170Z,14.1
2023-05-05T03:31:32.524Z,13.7
2023-05-05T03:33:36.386Z,13.8
2023-05-05T03:35:43.558Z,13.9
2023-05-05T03:37:47.447Z,13.9
2023-05-05T03:39:51.315Z,13.9
2023-05-05T03:43:59.063Z,13.8
2023-05-05T03:46:02.987Z,13.8
2023-05-05T03:48:06.924Z,13.8
2023-05-05T03:50:13.968Z,13.9
2023-05-05T03:52:17.866Z,13.9
2023-05-05T03:54:21.738Z,13.9
2023-05-05T03:56:25.604Z,13.9
2023-05-05T03:58:29.492Z,13.9
2023-05-05T04:00:33.368Z,13.9
2023-05-05T04:02:37.328Z,13.8
2023-05-05T04:11:59.651Z,13.5
2023-05-05T04:14:03.519Z,13.4
2023-05-05T04:16:07.426Z,13.4
2023-05-05T04:20:18.455Z,13.3
2023-05-05T04:22:22.363Z,13.3
2023-05-05T04:24:27.863Z,13.4
2023-05-05T04:26:31.705Z,13.4
2023-05-05T04:30:39.498Z,13.5
2023-05-05T04:38:58.329Z,13.7
2023-05-05T04:41:02.131Z,13.7
2023-05-05T04:43:05.995Z,13.7
2023-05-05T04:45:09.903Z,13.7
2023-05-05T04:47:17.035Z,13.7
2023-05-05T04:49:20.902Z,13.7
2023-05-05T04:51:24.765Z,13.8
2023-05-05T04:53:28.672Z,13.8
2023-05-05T04:55:32.527Z,13.7
2023-05-05T04:57:36.449Z,13.7
2023-05-05T04:59:40.309Z,13.7
2023-05-05T05:01:47.507Z,13.9
2023-05-05T05:03:51.357Z,13.9
2023-05-05T05:05:55.200Z,13.9
2023-05-05T05:06:59.419Z,14
2023-05-05T05:09:02.642Z,14
2023-05-05T05:13:12.532Z,14.2
2023-05-05T05:15:17.552Z,14.3
2023-05-05T05:21:29.196Z,15
2023-05-05T05:23:33.073Z,15.2
2023-05-05T05:25:36.927Z,15
2023-05-05T05:35:59.589Z,17.5
2023-05-05T05:38:03.452Z,17.7
2023-05-05T05:40:07.468Z,18.4
2023-05-05T05:42:11.223Z,18.6
2023-05-05T05:44:18.348Z,19.1
2023-05-05T05:46:22.269Z,19.3
2023-05-05T05:48:26.092Z,20
2023-05-05T05:50:29.966Z,20.7
2023-05-05T05:58:48.729Z,20.4
2023-05-05T06:00:52.569Z,19.6
2023-05-05T06:04:00.179Z,18.5
2023-05-05T06:06:03.862Z,18.6
2023-05-05T06:08:07.744Z,19.9
2023-05-05T06:10:26.432Z,21.1
2023-05-05T06:12:18.772Z,22.1
2023-05-05T06:14:22.613Z,21.4
2023-05-05T06:16:26.580Z,20.2
2023-05-05T06:18:30.307Z,20.5
2023-05-05T06:20:34.143Z,20.5
2023-05-05T06:22:38.003Z,19.7
2023-05-05T06:26:48.956Z,21.1
2023-05-05T06:30:56.663Z,22
2023-05-05T06:33:00.604Z,22.7
2023-05-05T06:37:08.174Z,22.8
2023-05-05T06:43:22.937Z,23.6
2023-05-05T06:49:34.442Z,23.9
2023-05-05T06:53:42.110Z,24
2023-05-05T06:55:49.223Z,24.4
2023-05-05T06:57:53.060Z,24.4
2023-05-05T06:59:56.914Z,24.4
2023-05-05T07:02:22.512Z,23.2
2023-05-05T07:04:25.594Z,23.1
2023-05-05T07:06:29.436Z,23.9
2023-05-05T07:08:36.511Z,23.7
2023-05-05T07:12:44.170Z,23.8
2023-05-05T07:14:47.939Z,24.2
2023-05-05T07:16:51.835Z,24.1
2023-05-05T07:18:55.540Z,24.6
2023-05-05T07:20:59.326Z,25.5
2023-05-05T07:25:10.218Z,24.4
2023-05-05T07:31:21.571Z,25.5
2023-05-05T07:39:40.000Z,25.3
2023-05-05T07:41:43.772Z,25.9
2023-05-05T07:43:47.521Z,25.9
2023-05-05T07:45:51.307Z,25.9
2023-05-05T07:47:55.112Z,26.4
2023-05-05T07:52:05.914Z,25.3
2023-05-05T07:54:09.665Z,25.5
2023-05-05T07:56:13.396Z,25.6
2023-05-05T07:57:16.950Z,25
2023-05-05T08:01:24.491Z,25
2023-05-05T08:03:28.398Z,25.6
2023-05-05T08:11:46.538Z,26.5
2023-05-05T08:13:50.281Z,25.8
2023-05-05T08:20:04.830Z,25.4
2023-05-05T08:22:08.546Z,25.1
2023-05-05T08:24:12.326Z,25.5
2023-05-05T08:28:19.827Z,25.8
2023-05-05T08:32:29.085Z,26.7
2023-05-05T08:34:34.380Z,26.8
2023-05-05T08:36:38.122Z,25.9
2023-05-05T08:38:41.856Z,25.5
2023-05-05T08:40:45.576Z,25.9
2023-05-05T08:42:49.331Z,26.1
2023-05-05T08:46:56.844Z,25.3
2023-05-05T08:51:07.545Z,21.8
2023-05-05T08:54:14.771Z,20.9
2023-05-05T08:56:18.486Z,20.9
2023-05-05T08:58:22.242Z,21.1
2023-05-05T09:00:25.988Z,21.2
2023-05-05T09:02:33.102Z,21.2
2023-05-05T09:10:47.967Z,21.9
2023-05-05T09:14:57.236Z,21.2
2023-05-05T09:19:06.248Z,22.3
2023-05-05T09:23:13.735Z,21.5
2023-05-05T09:33:35.800Z,21
2023-05-05T09:35:39.526Z,20.9
2023-05-05T09:37:43.311Z,20.9
2023-05-05T09:46:01.619Z,20.7
2023-05-05T09:51:12.658Z,21.1
2023-05-05T09:53:16.399Z,21.1
2023-05-05T09:55:20.179Z,21.1
2023-05-05T09:57:23.933Z,21.4
2023-05-05T09:59:30.982Z,21.2
2023-05-05T10:01:34.761Z,21.2
2023-05-05T10:03:38.479Z,21
2023-05-05T10:05:42.253Z,21
2023-05-05T10:07:46.022Z,20.9
2023-05-05T10:09:49.784Z,20.9
2023-05-05T10:11:53.516Z,20.9
2023-05-05T10:14:00.599Z,20.7
2023-05-05T10:16:04.421Z,20.7
2023-05-05T10:18:08.694Z,20.6
2023-05-05T10:20:11.895Z,20.5
2023-05-05T10:24:20.995Z,20.4
2023-05-05T10:26:24.774Z,20.5
2023-05-05T10:28:31.839Z,20.8
2023-05-05T10:30:35.649Z,20.8
2023-05-05T10:32:52.974Z,20.8
2023-05-05T10:34:43.260Z,20.8
2023-05-05T10:36:46.972Z,21
2023-05-05T10:38:50.719Z,21
2023-05-05T10:40:54.521Z,21
2023-05-05T10:43:01.612Z,21.1
2023-05-05T10:47:09.143Z,21.3
2023-05-05T10:49:31.555Z,21
2023-05-05T10:53:39.080Z,20.7
2023-05-05T11:01:57.496Z,20.4
2023-05-05T11:04:01.321Z,20.5
2023-05-05T11:06:05.047Z,20.7
2023-05-05T11:10:16.057Z,21.4
2023-05-05T11:12:19.658Z,21.4
2023-05-05T11:14:23.418Z,21.4
2023-05-05T11:24:45.548Z,21.8
2023-05-05T11:26:49.312Z,21.5
2023-05-05T11:28:53.052Z,21.2
2023-05-05T11:30:57.902Z,20.6
2023-05-05T11:33:00.610Z,19.8
2023-05-05T11:35:04.394Z,18.2
2023-05-05T11:37:08.141Z,17.3
2023-05-05T11:43:22.819Z,16.2
2023-05-05T11:44:26.350Z,16.1
2023-05-05T11:46:30.244Z,16
2023-05-05T11:48:33.979Z,15.8
2023-05-05T11:50:37.813Z,15.6
2023-05-05T11:52:44.887Z,15.6
2023-05-05T11:54:48.712Z,15.5
2023-05-05T11:56:52.533Z,15.4
2023-05-05T12:09:18.873Z,14.4
2023-05-05T12:11:22.694Z,14.2
2023-05-05T12:13:26.676Z,14.1
2023-05-05T12:15:30.418Z,13.9
2023-05-05T12:17:34.276Z,13.7
2023-05-05T12:19:38.108Z,13.6
2023-05-05T12:21:45.260Z,13.6
2023-05-05T12:34:08.513Z,13.6
2023-05-05T12:36:15.661Z,13.6
2023-05-05T12:38:19.466Z,13.5
2023-05-05T12:40:23.351Z,13.5
2023-05-05T12:41:26.924Z,13.5
2023-05-05T12:49:45.723Z,13.5
2023-05-05T13:04:16.167Z,13.6
2023-05-05T13:08:23.920Z,13.6
2023-05-05T13:10:27.793Z,13.6
2023-05-05T13:12:31.703Z,13.7
2023-05-05T13:14:35.552Z,13.7
2023-05-05T13:16:39.425Z,13.6
2023-05-05T13:22:54.365Z,13.6
2023-05-05T13:27:02.109Z,13.8
2023-05-05T13:29:05.992Z,13.7
2023-05-05T13:31:09.890Z,13.8
2023-05-05T13:33:16.974Z,13.8
2023-05-05T13:35:20.859Z,13.8
2023-05-05T13:37:24.761Z,13.8
2023-05-05T13:42:36.093Z,13.7
2023-05-05T13:44:39.978Z,13.7
2023-05-05T13:52:58.757Z,13.7
2023-05-05T14:15:47.938Z,14.2
2023-05-05T14:19:55.693Z,14.4
2023-05-05T14:21:59.550Z,14.5
2023-05-05T14:24:03.439Z,14.5
2023-05-05T14:26:07.308Z,14.6
2023-05-05T14:28:11.196Z,14.7
2023-05-05T14:36:50.986Z,14.7
2023-05-05T14:40:58.726Z,14.6
2023-05-05T14:59:40.120Z,14.2
2023-05-05T15:01:44.019Z,14.2
2023-05-05T15:05:51.701Z,14.5
2023-05-05T15:07:55.568Z,14.6
2023-05-05T15:09:59.440Z,14.7
2023-05-05T15:12:06.574Z,15.1
2023-05-05T15:14:10.455Z,15.1
2023-05-05T15:16:14.337Z,15.3
2023-05-05T15:18:18.168Z,15.7
2023-05-05T15:20:22.040Z,16.1
2023-05-05T15:31:48.389Z,16
2023-05-05T15:33:52.224Z,15.9
2023-05-05T15:35:56.088Z,15.7
2023-05-05T15:40:07.045Z,15.3
2023-05-05T15:42:10.959Z,15.4
2023-05-05T15:44:14.791Z,15.8
2023-05-05T15:46:18.707Z,16.3
2023-05-05T15:48:22.506Z,16.5
2023-05-05T15:50:26.360Z,16.7
2023-05-05T15:52:30.232Z,16.7
2023-05-05T15:56:41.212Z,16.4
2023-05-05T15:58:45.103Z,16.4
2023-05-05T16:00:48.998Z,16.1
2023-05-05T16:02:52.923Z,15.9
2023-05-05T16:04:56.635Z,16.2
2023-05-05T16:07:00.489Z,16.3
2023-05-05T16:09:07.682Z,16.5
2023-05-05T16:11:11.512Z,16.3
2023-05-05T16:13:15.514Z,16.7
2023-05-05T16:15:19.224Z,17.1
2023-05-05T16:17:23.044Z,17.3
2023-05-05T16:19:28.575Z,17.4
2023-05-05T16:21:32.390Z,16.9
2023-05-05T16:23:39.493Z,16.4
2023-05-05T16:27:47.203Z,16.4
2023-05-05T16:30:54.648Z,17.2
2023-05-05T16:43:20.993Z,17.1
2023-05-05T16:45:24.835Z,16.9
2023-05-05T16:47:28.735Z,17.1
2023-05-05T16:51:39.676Z,16.9
2023-05-05T16:53:43.543Z,16.8
2023-05-05T17:12:21.452Z,16.1
2023-05-05T17:27:55.322Z,16.2
2023-05-05T17:29:59.269Z,16.1
2023-05-05T17:32:03.141Z,16
2023-05-05T17:34:10.135Z,16
2023-05-05T17:36:13.982Z,16
2023-05-05T17:38:17.869Z,16
2023-05-05T17:42:25.569Z,15.9
2023-05-05T17:44:29.412Z,15.9
2023-05-05T17:46:33.303Z,15.9
2023-05-05T17:48:40.464Z,15.8
2023-05-05T17:50:44.265Z,15.8
2023-05-05T17:52:48.108Z,15.8
2023-05-05T17:56:55.825Z,15.8
2023-05-05T17:58:59.702Z,15.8
2023-05-05T18:01:03.594Z,15.8
2023-05-05T18:03:10.779Z,15.8
2023-05-05T18:09:22.247Z,15.7
2023-05-05T18:11:26.091Z,15.7
2023-05-05T18:17:40.937Z,15.6
2023-05-05T18:19:46.151Z,15.4
2023-05-05T18:21:48.636Z,15.3
2023-05-05T18:24:18.538Z,15.1
2023-05-05T18:26:11.696Z,15.1
2023-05-05T18:28:15.547Z,15
2023-05-05T18:30:22.655Z,15
2023-05-05T18:32:26.570Z,14.9
2023-05-05T18:34:30.368Z,14.9
2023-05-05T18:36:34.249Z,14.8
2023-05-05T18:38:38.147Z,14.8
2023-05-05T18:40:41.961Z,14.8
2023-05-05T18:42:45.829Z,14.7
2023-05-05T18:44:52.938Z,14.7
2023-05-05T18:49:00.775Z,14.6
2023-05-05T18:51:04.541Z,14.4
2023-05-05T18:53:08.386Z,14.4
2023-05-05T19:11:46.506Z,13.6
2023-05-05T19:13:53.611Z,13.5
2023-05-05T19:15:57.488Z,13.5
2023-05-05T19:33:35.284Z,12.9
2023-05-05T19:35:39.161Z,12.8
2023-05-05T19:37:43.031Z,12.8
2023-05-05T19:39:46.907Z,12.8
2023-05-05T19:48:05.688Z,12.6
2023-05-05T19:50:09.950Z,12.5
2023-05-05T19:52:13.432Z,12.5
2023-05-05T19:54:17.316Z,12.5
2023-05-05T19:56:24.484Z,12.5
2023-05-05T19:58:28.324Z,12.4
2023-05-05T20:00:32.200Z,12.3
2023-05-05T20:02:37.021Z,12.3
2023-05-05T20:04:39.939Z,12.3
2023-05-05T20:16:06.223Z,12.2
2023-05-05T20:18:10.042Z,12.2
2023-05-05T20:28:32.646Z,12
2023-05-05T20:32:40.430Z,12
2023-05-05T20:36:48.198Z,11.9
2023-05-05T20:40:59.157Z,11.9
2023-05-05T20:53:25.594Z,11.8
2023-05-05T20:55:29.460Z,11.7
2023-05-05T20:57:33.335Z,11.7
2023-05-05T20:59:37.197Z,11.6
2023-05-05T21:01:41.094Z,11.6
2023-05-05T21:03:44.933Z,11.6
2023-05-05T21:05:48.799Z,11.6
2023-05-05T21:13:07.236Z,11.6
2023-05-05T21:17:14.947Z,11.7
2023-05-05T21:19:18.807Z,11.6
2023-05-05T21:21:25.920Z,11.6
2023-05-05T21:23:29.785Z,11.6
2023-05-05T21:25:33.650Z,11.5
2023-05-05T21:29:41.374Z,11.5
2023-05-05T21:31:45.267Z,11.5
2023-05-05T21:38:00.118Z,11.4
2023-05-05T21:40:03.938Z,11.4
2023-05-05T21:48:19.408Z,11.2
2023-05-05T21:56:38.171Z,11.2
2023-05-05T22:04:56.866Z,11.2
2023-05-05T22:07:00.768Z,11.1
2023-05-05T22:11:29.827Z,11.1
2023-05-05T22:13:33.661Z,11.1
2023-05-05T22:17:46.268Z,11
2023-05-05T22:21:53.973Z,11
2023-05-05T22:34:20.425Z,10.8
2023-05-05T22:36:24.299Z,10.7
2023-05-05T22:38:28.167Z,10.7
2023-05-05T22:40:32.034Z,10.6
2023-05-05T22:42:35.894Z,10.6
2023-05-05T22:44:39.748Z,10.6
2023-05-05T22:46:46.989Z,10.6
2023-05-05T22:48:50.754Z,10.5
2023-05-05T22:52:58.508Z,10.5
2023-05-05T22:57:06.200Z,10.5
2023-05-05T23:03:21.075Z,10.5
2023-05-05T23:05:24.970Z,10.5
2023-05-05T23:06:28.529Z,10.5
2023-05-05T23:08:32.400Z,10.5
2023-05-05T23:10:36.265Z,10.6
2023-05-05T23:12:40.168Z,10.6
2023-05-05T23:14:47.223Z,10.6
2023-05-05T23:16:51.166Z,10.6
2023-05-05T23:20:58.849Z,10.7
2023-05-05T23:27:10.410Z,10.8
2023-05-05T23:29:17.550Z,10.8
2023-05-05T23:31:21.554Z,10.8
2023-05-05T23:39:36.878Z,10.7
2023-05-05T23:41:40.738Z,10.6
2023-05-05T23:45:51.740Z,10.5
2023-05-05T23:47:55.663Z,10.5
2023-05-05T23:49:59.471Z,10.5
2023-05-05T23:52:03.344Z,10.5
2023-05-05T23:54:07.216Z,10.4
2023-05-05T23:56:11.080Z,10.4
2023-05-05T23:58:18.193Z,10.4
